Data for 06/27/2013

Time Sea-Level Adjusted Pressure Absolute Pressure Temperature Relative Humidity Dew Point   
(mb) (inHg) (mb) (inHg) (C) (F) (%) (C) (F)
10:50 1026 30.3 855 25.25 23.9 74.9 37 8.6 47.4
10:55 1026 30.3 855 25.25 24.2 75.5 36 8.6 47.4
11:00 1026 30.3 855 25.25 24.1 75.4 37 8.9 48
11:05 1026 30.3 855 25.25 23.9 74.9 39 9.3 48.7
11:10 1026 30.3 855 25.25 23.4 74.1 40 9.3 48.7
11:15 1026 30.3 855 25.25 23.8 74.9 37 8.3 47
11:20 1026 30.3 855 25.25 24.2 75.6 36 8.6 47.4
11:25 1026 30.3 855 25.25 24.4 76 36 8.6 47.5
11:30 1026 30.3 855 25.25 24.4 76 36 8.5 47.4
11:35 1026 30.3 855 25.25 24.4 75.9 36 8.7 47.7
11:40 1026 30.3 855 25.25 24.4 76 35 8.3 47
11:45 1026 30.3 855 25.25 25.1 77.1 34 8.5 47.4
11:50 1026 30.3 855 25.25 25.3 77.5 36 9.2 48.6
11:55 1026 30.3 855 25.25 24.9 76.8 35 8.7 47.6
12:00 1026 30.3 855 25.25 25.5 77.9 34 8.7 47.7
12:05 1026 30.3 855 25.25 25.4 77.7 35 9 48.1
12:10 1026 30.3 855 25.25 25.6 78.1 33 8.6 47.5
12:15 1026 30.3 855 25.25 26.4 79.6 33 9.1 48.4
12:20 1025 30.27 855 25.25 26.4 79.5 33 9.3 48.7
12:25 1025 30.27 855 25.25 25.3 77.6 36 9.6 49.3
12:30 1025 30.27 855 25.25 25.6 78.1 35 9.1 48.4
12:35 1025 30.27 855 25.25 25.8 78.4 34 8.8 47.8
12:40 1025 30.27 855 25.25 25.9 78.6 36 9.8 49.6
12:45 1025 30.27 854 25.22 25.6 78.1 34 8.7 47.7
12:50 1025 30.27 854 25.22 26.4 79.5 32 8.5 47.3
12:55 1025 30.27 854 25.22 26.6 79.9 31 8.2 46.7
13:00 1025 30.27 854 25.22 26.8 80.3 31 8.7 47.7
13:05 1025 30.27 854 25.22 26.9 80.4 31 8.7 47.6
13:10 1025 30.27 854 25.22 26.6 79.9 31 8.5 47.2
13:15 1025 30.27 854 25.22 27 80.6 30 8.1 46.6
13:20 1025 30.27 854 25.22 27.3 81.1 29 7.8 46.1
13:25 1025 30.27 854 25.22 27.1 80.8 29 8 46.3
13:30 1025 30.27 854 25.22 27.3 81.1 29 8.2 46.7
13:35 1025 30.27 854 25.22 27.5 81.5 28 7.8 46.1
13:40 1025 30.27 854 25.22 28.3 82.9 28 8.2 46.8
13:45 1025 30.27 854 25.22 28.3 82.9 27 7.6 45.6
13:50 1025 30.27 854 25.22 28.1 82.6 26 7.3 45.1
13:55 1025 30.27 854 25.22 28 82.4 27 7.5 45.5
14:00 1025 30.27 854 25.22 28.3 82.9 26 7.4 45.2
14:05 1025 30.27 854 25.22 29.1 84.3 25 7.4 45.3
14:10 1025 30.27 854 25.22 28.4 83 26 7.4 45.3
14:15 1025 30.27 854 25.22 28.5 83.3 25 7 44.6
14:20 1025 30.27 854 25.22 28.5 83.4 25 7.1 44.8
14:25 1025 30.27 854 25.22 29.1 84.3 25 7.3 45.1
14:30 1025 30.27 854 25.22 29.2 84.5 24 6.7 44
14:35 1025 30.27 854 25.22 29 84.2 24 6.9 44.4
14:40 1025 30.27 854 25.22 29 84.1 23 6.3 43.4
14:45 1025 30.27 854 25.22 29.1 84.3 23 6.1 42.9
14:50 1025 30.27 854 25.22 28.7 83.7 23 6 42.8
14:55 1025 30.27 854 25.22 28.8 83.8 23 6.1 43
15:00 1025 30.27 854 25.22 29.1 84.4 23 6.4 43.4
15:05 1025 30.27 854 25.22 29 84.2 23 6.3 43.3
15:10 1024 30.24 854 25.22 29.2 84.6 23 6.4 43.5
15:15 1024 30.24 854 25.22 29.1 84.4 22 5.8 42.4
15:20 1024 30.24 854 25.22 29.6 85.2 23 6.7 44
15:25 1024 30.24 854 25.22 29.7 85.4 22 6 42.8
15:30 1024 30.24 854 25.22 29.4 84.8 22 5.9 42.7
15:35 1024 30.24 854 25.22 29.5 85 21 5.5 41.8
15:40 1024 30.24 853 25.19 29 84.2 21 5 41
15:45 1024 30.24 854 25.22 28.9 84 22 5.6 42.1
15:50 1024 30.24 854 25.22 29.3 84.7 23 6.1 43.1
15:55 1024 30.24 853 25.19 28.9 83.9 23 6 42.9
16:00 1024 30.24 853 25.19 28.6 83.5 23 6 42.8
16:05 1024 30.24 853 25.19 29 84.2 22 5.6 42.1
16:10 1024 30.24 853 25.19 29.3 84.8 22 5.6 42.1
16:15 1024 30.24 853 25.19 29.9 85.8 22 6 42.8
16:20 1024 30.24 853 25.19 30 85.9 21 5.5 42
16:25 1024 30.24 853 25.19 29.9 85.8 21 5.6 42.1
16:30 1024 30.24 853 25.19 30 86.1 20 5.3 41.6
16:35 1024 30.24 853 25.19 29.7 85.4 22 5.7 42.3
16:40 1024 30.24 853 25.19 29.6 85.3 21 5.2 41.4
16:45 1024 30.24 853 25.19 29.7 85.5 22 6.1 43
16:50 1024 30.24 853 25.19 29.7 85.5 20 5 40.9
16:55 1024 30.24 853 25.19 29.8 85.7 20 5.1 41.2
17:00 1024 30.24 853 25.19 29.6 85.2 20 4.9 40.8
10:40 1026 30.3 855 25.25 23.3 74 39 8.9 48.1
10:45 1026 30.3 855 25.25 23.3 73.9 37 8.2 46.7
09:20 1026 30.3 855 25.25 21.2 70.1 43 8.3 46.9
09:25 1026 30.3 855 25.25 21.5 70.6 42 8.3 46.9
09:30 1026 30.3 855 25.25 22.2 72 41 8.6 47.4
09:35 1026 30.3 855 25.25 22 71.6 43 9.1 48.4
09:40 1026 30.3 855 25.25 22.5 72.5 41 8.8 47.9
09:45 1026 30.3 855 25.25 22.9 73.2 41 9.1 48.4
09:05 1026 30.3 855 25.25 20.9 69.6 45 8.5 47.3
09:10 1026 30.3 855 25.25 20.8 69.5 45 8.6 47.6
08:30 1026 30.3 855 25.25 18.9 66 50 8.3 46.9
08:35 1026 30.3 855 25.25 19.1 66.3 50 8.4 47.2
08:40 1026 30.3 855 25.25 19.2 66.6 48 8 46.5
08:45 1026 30.3 855 25.25 19.6 67.4 49 8.8 47.8
08:50 1026 30.3 855 25.25 19.8 67.7 47 8.3 46.9
00:05 1023 30.21 852 25.16 13.7 56.6 76 9.5 49.2
00:10 1023 30.21 852 25.16 13.6 56.5 75 9.3 48.8
00:15 1023 30.21 852 25.16 13.6 56.6 75 9.4 48.8
00:20 1023 30.21 852 25.16 13.5 56.2 75 9.1 48.5
00:25 1023 30.21 852 25.16 13.5 56.3 74 9 48.2
00:30 1023 30.21 852 25.16 13.7 56.6 73 8.9 48
00:35 1023 30.21 852 25.16 13.6 56.5 73 8.9 48.1
00:40 1023 30.21 852 25.16 13.6 56.4 73 8.8 47.9
00:45 1023 30.21 852 25.16 13.5 56.4 73 8.9 48
00:50 1023 30.21 852 25.16 13.5 56.3 72 8.6 47.5
00:55 1023 30.21 852 25.16 13.7 56.6 72 8.7 47.6
01:00 1023 30.21 852 25.16 13.8 56.8 72 8.8 47.8
01:05 1023 30.21 852 25.16 13.6 56.5 73 8.9 48
01:10 1023 30.21 852 25.16 13.4 56.1 73 8.6 47.5
01:15 1023 30.21 852 25.16 13.6 56.4 71 8.5 47.4
01:20 1023 30.21 852 25.16 13.8 56.8 71 8.6 47.5
01:25 1023 30.21 852 25.16 13.9 57.1 70 8.6 47.5
01:30 1023 30.21 852 25.16 14.1 57.3 69 8.6 47.4
01:35 1023 30.21 852 25.16 14.3 57.7 68 8.6 47.4
01:40 1023 30.21 852 25.16 14.2 57.5 69 8.7 47.7
01:45 1023 30.21 852 25.16 13.9 56.9 70 8.6 47.5
01:50 1023 30.21 852 25.16 13.5 56.3 72 8.6 47.5
01:55 1023 30.21 852 25.16 13.3 55.9 73 8.6 47.4
02:00 1023 30.21 852 25.16 13.2 55.7 73 8.5 47.2
02:05 1023 30.21 852 25.16 13.2 55.7 73 8.5 47.4
02:10 1023 30.21 852 25.16 12.9 55.2 74 8.5 47.2
02:15 1023 30.21 852 25.16 13.1 55.6 72 8.3 47
02:20 1023 30.21 852 25.16 13.2 55.8 72 8.3 47
02:25 1023 30.21 853 25.19 13.1 55.7 72 8.3 47
02:30 1023 30.21 853 25.19 13.2 55.8 71 8.2 46.7
02:35 1023 30.21 853 25.19 13.4 56.2 71 8.4 47.1
02:40 1023 30.21 853 25.19 13 55.3 73 8.3 47
02:45 1023 30.21 853 25.19 13.1 55.5 73 8.4 47.2
02:50 1024 30.24 853 25.19 13.2 55.8 73 8.5 47.4
02:55 1024 30.24 853 25.19 13.2 55.7 73 8.4 47.1
03:00 1024 30.24 853 25.19 12.9 55.2 73 8.2 46.8
03:05 1024 30.24 853 25.19 12.7 54.8 74 8.2 46.8
03:10 1024 30.24 853 25.19 12.5 54.6 75 8.2 46.8
03:15 1024 30.24 853 25.19 12.3 54.1 76 8.2 46.8
03:20 1024 30.24 853 25.19 12 53.6 77 8.1 46.6
03:25 1024 30.24 853 25.19 11.7 53.1 78 8 46.4
03:30 1024 30.24 853 25.19 11.4 52.5 80 8 46.4
03:35 1024 30.24 853 25.19 11.1 52 80 7.9 46.1
03:40 1024 30.24 853 25.19 11.1 52 80 7.8 46
03:45 1024 30.24 853 25.19 11.1 52 80 7.8 46.1
03:50 1024 30.24 853 25.19 11.3 52.3 79 7.8 46.1
03:55 1024 30.24 853 25.19 10.9 51.7 81 7.8 46.1
04:00 1024 30.24 853 25.19 10.7 51.2 82 7.8 46
04:05 1024 30.24 853 25.19 10.7 51.3 81 7.7 45.9
04:10 1024 30.24 853 25.19 10.9 51.5 81 7.7 45.8
04:15 1024 30.24 853 25.19 11.1 51.9 80 7.7 45.9
04:20 1024 30.24 853 25.19 11.1 51.9 80 7.7 45.8
04:25 1024 30.24 853 25.19 11.1 51.9 80 7.7 45.9
04:30 1024 30.24 853 25.19 11 51.8 80 7.7 45.8
04:35 1024 30.24 854 25.22 11.1 52 80 7.7 45.9
04:40 1024 30.24 854 25.22 11.1 52 80 7.7 45.9
04:45 1024 30.24 854 25.22 11 51.8 80 7.7 45.8
04:50 1024 30.24 854 25.22 10.8 51.5 81 7.7 45.9
04:55 1024 30.24 854 25.22 10.4 50.7 84 7.7 45.9
05:00 1025 30.27 854 25.22 10.1 50.2 84 7.5 45.5
05:05 1025 30.27 854 25.22 10.5 50.9 82 7.6 45.6
05:10 1025 30.27 854 25.22 10.8 51.5 81 7.6 45.7
05:15 1025 30.27 854 25.22 11.1 51.9 80 7.7 45.8
05:20 1025 30.27 854 25.22 11.2 52.1 79 7.6 45.7
05:25 1025 30.27 854 25.22 11.5 52.7 77 7.6 45.6
05:30 1025 30.27 854 25.22 11.8 53.3 75 7.6 45.6
05:35 1025 30.27 854 25.22 11.9 53.3 75 7.7 45.8
05:40 1025 30.27 854 25.22 12 53.6 75 7.8 46
05:45 1025 30.27 854 25.22 12.1 53.8 74 7.7 45.9
05:50 1025 30.27 854 25.22 12.3 54.1 74 7.9 46.1
05:55 1025 30.27 854 25.22 12.3 54.1 75 8 46.4
06:00 1025 30.27 854 25.22 12.5 54.5 74 8 46.4
06:05 1025 30.27 854 25.22 12.9 55.2 72 8.1 46.6
06:10 1025 30.27 854 25.22 13.3 55.9 72 8.3 46.9
06:15 1025 30.27 854 25.22 13.8 56.9 69 8.3 47
06:20 1025 30.27 855 25.25 14 57.3 69 8.6 47.4
06:25 1025 30.27 855 25.25 14.4 57.9 67 8.5 47.2
06:30 1025 30.27 855 25.25 15 59 64 8.4 47.1
06:35 1026 30.3 855 25.25 15.5 60 64 8.8 47.8
06:40 1026 30.3 855 25.25 15.6 60.1 61 8.3 46.9
06:45 1026 30.3 855 25.25 15.7 60.3 61 8.4 47.1
06:50 1026 30.3 855 25.25 16 60.8 59 8 46.5
06:55 1026 30.3 855 25.25 16.9 62.3 54 7.6 45.7
07:00 1026 30.3 855 25.25 17.3 63.1 54 7.9 46.3
07:05 1026 30.3 855 25.25 17.4 63.4 54 8 46.5
07:10 1026 30.3 855 25.25 17.1 62.8 54 7.9 46.3
07:15 1026 30.3 855 25.25 17.1 62.8 54 7.8 46
07:20 1026 30.3 855 25.25 17.4 63.3 53 7.9 46.2
07:25 1026 30.3 855 25.25 17.6 63.6 52 7.8 46
07:30 1026 30.3 855 25.25 17.6 63.7 52 7.8 46.1
07:35 1026 30.3 855 25.25 18 64.5 51 7.8 46.1
07:40 1026 30.3 855 25.25 18.3 65 51 8.1 46.5
07:45 1026 30.3 855 25.25 18 64.5 52 8.2 46.8
07:50 1026 30.3 855 25.25 17.8 64 53 8.3 47
07:55 1026 30.3 855 25.25 17.3 63.1 53 7.8 46
08:00 1026 30.3 855 25.25 17.1 62.8 54 7.9 46.2
08:05 1026 30.3 855 25.25 17.7 63.8 53 8.2 46.7
08:10 1026 30.3 855 25.25 18.2 64.7 53 8.5 47.3
08:15 1026 30.3 855 25.25 18.3 64.9 53 8.6 47.5
08:20 1026 30.3 855 25.25 18.3 64.9 54 8.8 47.8
08:25 1026 30.3 855 25.25 18.5 65.3 52 8.5 47.3
08:30 1026 30.3 855 25.25 18.9 66 50 8.3 46.9
08:55 1026 30.3 855 25.25 20.3 68.6 43 7.6 45.7
09:00 1026 30.3 855 25.25 20.8 69.4 45 8.7 47.7
09:05 1026 30.3 855 25.25 20.9 69.6 45 8.5 47.3
09:15 1026 30.3 855 25.25 20.7 69.3 45 8.6 47.4
09:20 1026 30.3 855 25.25 21.2 70.1 43 8.3 46.9
09:50 1026 30.3 855 25.25 22.6 72.7 42 9.2 48.6
09:55 1026 30.3 855 25.25 22.5 72.4 39 8 46.4
10:00 1026 30.3 855 25.25 23 73.3 38 8 46.4
10:05 1026 30.3 855 25.25 23.4 74.2 39 8.7 47.7
10:10 1026 30.3 855 25.25 23.4 74 41 9.4 49
10:15 1026 30.3 855 25.25 23.2 73.7 41 9.2 48.6
10:20 1026 30.3 855 25.25 23.4 74.2 40 9.4 48.9
10:25 1026 30.3 855 25.25 23.5 74.2 41 9.6 49.3
10:30 1026 30.3 855 25.25 23.1 73.5 41 9.1 48.5
10:35 1026 30.3 855 25.25 23.5 74.2 38 8.5 47.4
10:50 1026 30.3 855 25.25 23.9 74.9 37 8.6 47.4
20:45 1025 30.27 854 25.22 22.2 71.9 55 12.8 55
20:50 1025 30.27 854 25.22 22.1 71.8 44 9.5 49
20:55 1025 30.27 855 25.25 22.1 71.7 44 9.4 48.9
17:05 1024 30.24 853 25.19 30.1 86.1 19 4.6 40.3
17:10 1024 30.24 853 25.19 30.3 86.5 22 6.2 43.2
17:15 1024 30.24 853 25.19 30.1 86.2 19 4.5 40.2
17:20 1024 30.24 853 25.19 29.3 84.8 20 4.7 40.5
17:25 1024 30.24 853 25.19 29 84.3 21 5.2 41.3
17:30 1024 30.24 853 25.19 28.9 84.1 21 4.9 40.8
17:35 1024 30.24 853 25.19 29.1 84.5 21 4.7 40.5
17:40 1024 30.24 853 25.19 29 84.3 20 4.2 39.5
17:45 1024 30.24 853 25.19 29.1 84.5 20 4.6 40.2
17:50 1024 30.24 853 25.19 29.4 85 20 4.5 40.1
17:55 1024 30.24 853 25.19 29.1 84.4 21 5 41.1
18:00 1024 30.24 853 25.19 28.8 83.8 21 4.9 40.9
18:05 1024 30.24 853 25.19 28.6 83.5 21 4.6 40.3
18:10 1024 30.24 853 25.19 28.6 83.5 21 4.4 39.9
18:15 1024 30.24 853 25.19 28.7 83.7 21 4.5 40.1
18:20 1024 30.24 853 25.19 28.7 83.7 22 5.1 41.1
18:25 1024 30.24 853 25.19 28.7 83.6 21 4.7 40.5
18:30 1024 30.24 853 25.19 28.8 83.9 22 5.5 41.9
18:35 1024 30.24 853 25.19 28.5 83.2 22 5.1 41.3
18:40 1024 30.24 853 25.19 28.2 82.7 22 4.5 40
18:45 1024 30.24 853 25.19 28.1 82.5 21 3.9 39
18:50 1024 30.24 853 25.19 28.1 82.6 21 4.1 39.3
18:55 1024 30.24 853 25.19 28 82.3 21 3.8 38.9
19:00 1024 30.24 853 25.19 27.9 82.2 21 3.9 38.9
19:05 1024 30.24 853 25.19 27.9 82.3 21 3.6 38.5
19:10 1024 30.24 853 25.19 27.9 82.2 21 3.8 38.9
19:15 1024 30.24 853 25.19 27.8 82.1 21 3.9 39.1
19:20 1024 30.24 853 25.19 27.7 81.9 21 4 39.2
19:25 1024 30.24 853 25.19 27.6 81.7 22 4.5 40.2
19:30 1024 30.24 853 25.19 27.5 81.5 22 4.4 39.9
19:35 1024 30.24 853 25.19 27.4 81.4 22 4.3 39.7
19:40 1024 30.24 853 25.19 27.4 81.4 22 4 39.2
19:45 1024 30.24 853 25.19 27.4 81.3 22 4 39.1
19:50 1024 30.24 853 25.19 27.3 81.1 24 5.3 41.5
19:55 1024 30.24 853 25.19 27.1 80.8 27 6.6 44
20:00 1024 30.24 853 25.19 26.7 80 32 8.7 47.6
20:05 1024 30.24 854 25.22 25.9 78.5 40 11.4 52.6
20:10 1024 30.24 854 25.22 24.8 76.7 42 11.4 52.5
20:15 1025 30.27 854 25.22 23.9 75 47 12.2 53.9
20:20 1025 30.27 854 25.22 23.4 74.1 47 11.5 52.7
20:25 1025 30.27 854 25.22 23.2 73.7 46 11.1 52
20:30 1025 30.27 854 25.22 23 73.3 48 11.6 52.8
20:35 1025 30.27 854 25.22 22.7 72.8 49 11.6 52.9
20:40 1025 30.27 854 25.22 22.4 72.3 46 10.5 50.8
20:55 1025 30.27 855 25.25 22.1 71.7 44 9.4 48.9
21:00 1025 30.27 855 25.25 21.9 71.3 42 8.6 47.5
21:05 1025 30.27 855 25.25 21.8 71.3 43 9 48.1
21:10 1025 30.27 855 25.25 21.9 71.4 41 8.1 46.7
21:15 1026 30.3 855 25.25 22 71.6 39 7.7 45.8
21:20 1026 30.3 855 25.25 22 71.6 40 8.1 46.6
21:25 1026 30.3 855 25.25 21.9 71.3 38 7.3 45.1
21:30 1026 30.3 855 25.25 22.5 72.5 36 6.7 44
21:35 1026 30.3 855 25.25 22.6 72.7 37 7.4 45.3
21:40 1026 30.3 855 25.25 22.3 72.1 38 7.6 45.7
21:45 1026 30.3 855 25.25 22.2 71.9 40 8.1 46.6
21:50 1026 30.3 855 25.25 22.1 71.8 41 8.3 46.9
21:55 1026 30.3 855 25.25 21.9 71.4 42 8.6 47.5
22:00 1026 30.3 855 25.25 21.6 70.9 43 8.7 47.6
22:05 1026 30.3 855 25.25 21.4 70.5 44 8.8 47.9
22:10 1026 30.3 855 25.25 21.3 70.4 45 8.9 48.1
22:15 1026 30.3 855 25.25 21.2 70.2 45 8.8 47.9
22:20 1026 30.3 855 25.25 21.2 70.2 45 8.9 47.9
22:25 1026 30.3 855 25.25 21.2 70.1 45 8.9 48
22:30 1026 30.3 855 25.25 21.2 70.1 45 8.8 47.9
22:35 1026 30.3 855 25.25 21.3 70.3 45 9 48.1
22:40 1026 30.3 855 25.25 21.2 70.1 45 8.8 47.8
22:45 1026 30.3 855 25.25 21.2 70.2 45 8.9 48.1
22:50 1026 30.3 855 25.25 21.1 69.9 45 8.9 48
22:55 1026 30.3 856 25.28 20.7 69.3 48 9.3 48.8
23:00 1026 30.3 856 25.28 19.6 67.3 50 9 48.2
23:05 1026 30.3 856 25.28 19.3 66.7 50 8.7 47.6
23:10 1026 30.3 856 25.28 19.2 66.6 51 9 48.2
23:15 1026 30.3 856 25.28 19.1 66.5 52 9.2 48.5
23:20 1026 30.3 856 25.28 19.4 66.8 50 8.8 47.8
23:25 1027 30.33 856 25.28 19.5 67.1 51 9.2 48.5
23:30 1027 30.33 856 25.28 19.3 66.8 51 9.1 48.4
23:35 1027 30.33 856 25.28 19.6 67.2 50 8.9 48.1
23:40 1027 30.33 856 25.28 19.8 67.6 49 9 48.2
23:45 1027 30.33 856 25.28 19.8 67.6 50 9.1 48.3
23:50 1027 30.33 856 25.28 19.8 67.6 49 9 48.2
23:55 1027 30.33 856 25.28 19.7 67.4 50 9 48.2
24:00 1027 30.33 856 25.28 19.6 67.2 50 9 48.2